sensor_id;sensor_type;location;lat;lon;timestamp;pressure;altitude;pressure_sealevel;temperature;humidity
58243;BME280;50118;53.232;8.252;2023-04-25T00:01:13;100560.66;;;5.36;100.00
58243;BME280;50118;53.232;8.252;2023-04-25T00:03:39;100551.59;;;5.28;100.00
58243;BME280;50118;53.232;8.252;2023-04-25T00:06:05;100559.41;;;5.29;100.00
58243;BME280;50118;53.232;8.252;2023-04-25T00:08:31;100556.91;;;5.39;100.00
58243;BME280;50118;53.232;8.252;2023-04-25T00:10:57;100553.50;;;5.26;100.00
58243;BME280;50118;53.232;8.252;2023-04-25T00:13:23;100561.94;;;5.31;100.00
58243;BME280;50118;53.232;8.252;2023-04-25T00:15:50;100568.53;;;5.25;100.00
58243;BME280;50118;53.232;8.252;2023-04-25T00:18:16;100569.94;;;5.18;100.00
58243;BME280;50118;53.232;8.252;2023-04-25T00:20:43;100568.13;;;5.18;100.00
58243;BME280;50118;53.232;8.252;2023-04-25T00:23:12;100570.06;;;5.16;100.00
58243;BME280;50118;53.232;8.252;2023-04-25T00:25:52;100575.78;;;5.10;100.00
58243;BME280;50118;53.232;8.252;2023-04-25T00:28:17;100577.47;;;5.11;100.00
58243;BME280;50118;53.232;8.252;2023-04-25T00:30:43;100565.94;;;5.12;100.00
58243;BME280;50118;53.232;8.252;2023-04-25T00:33:09;100577.00;;;5.17;100.00
58243;BME280;50118;53.232;8.252;2023-04-25T00:35:35;100579.19;;;5.23;100.00
58243;BME280;50118;53.232;8.252;2023-04-25T00:38:01;100576.63;;;5.11;100.00
58243;BME280;50118;53.232;8.252;2023-04-25T00:40:27;100572.19;;;5.11;100.00
58243;BME280;50118;53.232;8.252;2023-04-25T00:42:53;100574.47;;;5.16;100.00
58243;BME280;50118;53.232;8.252;2023-04-25T00:45:19;100582.75;;;5.11;100.00
58243;BME280;50118;53.232;8.252;2023-04-25T00:47:45;100581.78;;;5.12;100.00
58243;BME280;50118;53.232;8.252;2023-04-25T00:50:11;100579.84;;;5.03;100.00
58243;BME280;50118;53.232;8.252;2023-04-25T00:52:43;100578.41;;;4.99;100.00
58243;BME280;50118;53.232;8.252;2023-04-25T00:55:10;100575.00;;;4.97;100.00
58243;BME280;50118;53.232;8.252;2023-04-25T00:57:36;100574.72;;;4.89;100.00
58243;BME280;50118;53.232;8.252;2023-04-25T01:00:03;100583.09;;;4.82;100.00
58243;BME280;50118;53.232;8.252;2023-04-25T01:02:31;100577.22;;;4.79;100.00
58243;BME280;50118;53.232;8.252;2023-04-25T01:04:57;100578.47;;;4.73;100.00
58243;BME280;50118;53.232;8.252;2023-04-25T01:07:22;100572.59;;;4.70;100.00
58243;BME280;50118;53.232;8.252;2023-04-25T01:09:48;100564.50;;;4.60;100.00
58243;BME280;50118;53.232;8.252;2023-04-25T01:12:13;100582.34;;;4.56;100.00
58243;BME280;50118;53.232;8.252;2023-04-25T01:14:39;100581.00;;;4.51;100.00
58243;BME280;50118;53.232;8.252;2023-04-25T01:17:05;100572.25;;;4.37;100.00
58243;BME280;50118;53.232;8.252;2023-04-25T01:19:32;100580.31;;;4.23;100.00
58243;BME280;50118;53.232;8.252;2023-04-25T01:21:58;100591.09;;;4.20;100.00
58243;BME280;50118;53.232;8.252;2023-04-25T01:24:23;100593.31;;;4.00;100.00
58243;BME280;50118;53.232;8.252;2023-04-25T01:26:49;100592.16;;;3.91;100.00
58243;BME280;50118;53.232;8.252;2023-04-25T01:29:17;100598.19;;;3.93;100.00
58243;BME280;50118;53.232;8.252;2023-04-25T01:31:44;100600.19;;;3.90;100.00
58243;BME280;50118;53.232;8.252;2023-04-25T01:34:09;100601.53;;;3.83;100.00
58243;BME280;50118;53.232;8.252;2023-04-25T01:36:35;100595.53;;;3.81;100.00
58243;BME280;50118;53.232;8.252;2023-04-25T01:39:00;100618.72;;;3.76;100.00
58243;BME280;50118;53.232;8.252;2023-04-25T01:41:26;100599.22;;;3.65;100.00
58243;BME280;50118;53.232;8.252;2023-04-25T01:43:52;100611.22;;;3.57;100.00
58243;BME280;50118;53.232;8.252;2023-04-25T01:46:17;100604.56;;;3.51;100.00
58243;BME280;50118;53.232;8.252;2023-04-25T01:48:43;100620.78;;;3.45;100.00
58243;BME280;50118;53.232;8.252;2023-04-25T01:51:09;100621.06;;;3.40;100.00
58243;BME280;50118;53.232;8.252;2023-04-25T01:53:36;100626.66;;;3.35;100.00
58243;BME280;50118;53.232;8.252;2023-04-25T01:56:02;100626.66;;;3.35;100.00
58243;BME280;50118;53.232;8.252;2023-04-25T01:58:28;100626.88;;;3.32;100.00
58243;BME280;50118;53.232;8.252;2023-04-25T02:00:53;100633.16;;;3.30;100.00
58243;BME280;50118;53.232;8.252;2023-04-25T02:03:18;100632.13;;;3.32;100.00
58243;BME280;50118;53.232;8.252;2023-04-25T02:05:44;100641.38;;;3.25;100.00
58243;BME280;50118;53.232;8.252;2023-04-25T02:08:09;100633.78;;;3.21;100.00
58243;BME280;50118;53.232;8.252;2023-04-25T02:10:35;100635.69;;;3.31;100.00
58243;BME280;50118;53.232;8.252;2023-04-25T02:13:00;100641.78;;;3.32;100.00
58243;BME280;50118;53.232;8.252;2023-04-25T02:15:26;100639.41;;;3.42;100.00
58243;BME280;50118;53.232;8.252;2023-04-25T02:17:52;100641.66;;;3.48;100.00
58243;BME280;50118;53.232;8.252;2023-04-25T02:20:21;100643.31;;;3.49;100.00
58243;BME280;50118;53.232;8.252;2023-04-25T02:22:47;100643.31;;;3.49;100.00
58243;BME280;50118;53.232;8.252;2023-04-25T02:25:12;100647.16;;;3.58;100.00
58243;BME280;50118;53.232;8.252;2023-04-25T02:27:38;100634.00;;;3.58;100.00
58243;BME280;50118;53.232;8.252;2023-04-25T02:30:04;100650.72;;;3.69;100.00
58243;BME280;50118;53.232;8.252;2023-04-25T02:32:30;100646.97;;;3.73;100.00
58243;BME280;50118;53.232;8.252;2023-04-25T02:34:55;100643.16;;;3.78;100.00
58243;BME280;50118;53.232;8.252;2023-04-25T02:37:23;100642.13;;;3.80;100.00
58243;BME280;50118;53.232;8.252;2023-04-25T02:39:49;100633.69;;;3.75;100.00
58243;BME280;50118;53.232;8.252;2023-04-25T02:42:14;100643.19;;;3.90;100.00
58243;BME280;50118;53.232;8.252;2023-04-25T02:44:40;100643.69;;;3.83;100.00
58243;BME280;50118;53.232;8.252;2023-04-25T02:47:05;100648.31;;;3.79;100.00
58243;BME280;50118;53.232;8.252;2023-04-25T02:49:30;100651.78;;;3.80;100.00
58243;BME280;50118;53.232;8.252;2023-04-25T02:51:56;100646.53;;;3.80;100.00
58243;BME280;50118;53.232;8.252;2023-04-25T02:54:21;100646.31;;;3.83;100.00
58243;BME280;50118;53.232;8.252;2023-04-25T02:56:47;100644.66;;;3.82;100.00
58243;BME280;50118;53.232;8.252;2023-04-25T02:59:12;100631.16;;;3.86;100.00
58243;BME280;50118;53.232;8.252;2023-04-25T03:01:37;100638.22;;;3.86;100.00
58243;BME280;50118;53.232;8.252;2023-04-25T03:04:03;100631.78;;;3.77;100.00
58243;BME280;50118;53.232;8.252;2023-04-25T03:06:28;100641.16;;;3.81;100.00
58243;BME280;50118;53.232;8.252;2023-04-25T03:08:54;100649.94;;;3.82;100.00
58243;BME280;50118;53.232;8.252;2023-04-25T03:11:19;100648.44;;;3.78;100.00
58243;BME280;50118;53.232;8.252;2023-04-25T03:13:45;100625.88;;;3.73;100.00
58243;BME280;50118;53.232;8.252;2023-04-25T03:16:11;100627.78;;;3.71;100.00
58243;BME280;50118;53.232;8.252;2023-04-25T03:18:36;100629.44;;;3.72;100.00
58243;BME280;50118;53.232;8.252;2023-04-25T03:21:02;100635.69;;;3.71;100.00
58243;BME280;50118;53.232;8.252;2023-04-25T03:23:27;100638.72;;;3.65;100.00
58243;BME280;50118;53.232;8.252;2023-04-25T03:25:53;100641.75;;;3.59;100.00
58243;BME280;50118;53.232;8.252;2023-04-25T03:28:18;100639.13;;;3.59;100.00
58243;BME280;50118;53.232;8.252;2023-04-25T03:30:44;100645.69;;;3.66;100.00
58243;BME280;50118;53.232;8.252;2023-04-25T03:33:09;100646.19;;;3.59;100.00
58243;BME280;50118;53.232;8.252;2023-04-25T03:35:34;100653.25;;;3.58;100.00
58243;BME280;50118;53.232;8.252;2023-04-25T03:38:00;100646.91;;;3.48;100.00
58243;BME280;50118;53.232;8.252;2023-04-25T03:40:25;100650.09;;;3.53;100.00
58243;BME280;50118;53.232;8.252;2023-04-25T03:42:51;100646.38;;;3.55;100.00
58243;BME280;50118;53.232;8.252;2023-04-25T03:45:16;100655.88;;;3.58;100.00
58243;BME280;50118;53.232;8.252;2023-04-25T03:47:41;100661.91;;;3.60;100.00
58243;BME280;50118;53.232;8.252;2023-04-25T03:50:07;100659.34;;;3.59;100.00
58243;BME280;50118;53.232;8.252;2023-04-25T03:52:32;100668.63;;;3.64;100.00
58243;BME280;50118;53.232;8.252;2023-04-25T03:54:58;100666.31;;;3.60;100.00
58243;BME280;50118;53.232;8.252;2023-04-25T03:57:23;100672.22;;;3.63;100.00
58243;BME280;50118;53.232;8.252;2023-04-25T03:59:49;100674.34;;;3.58;100.00
58243;BME280;50118;53.232;8.252;2023-04-25T04:02:14;100687.41;;;3.60;100.00
58243;BME280;50118;53.232;8.252;2023-04-25T04:04:39;100686.97;;;3.66;100.00
58243;BME280;50118;53.232;8.252;2023-04-25T04:07:05;100689.50;;;3.67;100.00
58243;BME280;50118;53.232;8.252;2023-04-25T04:09:30;100690.16;;;3.71;100.00
58243;BME280;50118;53.232;8.252;2023-04-25T04:11:56;100687.22;;;3.76;100.00
58243;BME280;50118;53.232;8.252;2023-04-25T04:14:21;100694.38;;;3.73;100.00
58243;BME280;50118;53.232;8.252;2023-04-25T04:16:47;100689.84;;;3.76;100.00
58243;BME280;50118;53.232;8.252;2023-04-25T04:19:12;100687.84;;;3.79;100.00
58243;BME280;50118;53.232;8.252;2023-04-25T04:21:37;100701.84;;;3.80;100.00
58243;BME280;50118;53.232;8.252;2023-04-25T04:24:03;100697.75;;;3.76;100.00
58243;BME280;50118;53.232;8.252;2023-04-25T04:26:28;100712.19;;;3.83;100.00
58243;BME280;50118;53.232;8.252;2023-04-25T04:28:54;100705.25;;;3.82;100.00
58243;BME280;50118;53.232;8.252;2023-04-25T04:31:22;100713.16;;;3.82;100.00
58243;BME280;50118;53.232;8.252;2023-04-25T04:33:47;100722.94;;;3.80;100.00
58243;BME280;50118;53.232;8.252;2023-04-25T04:36:13;100725.72;;;3.78;100.00
58243;BME280;50118;53.232;8.252;2023-04-25T04:38:39;100723.50;;;3.85;100.00
58243;BME280;50118;53.232;8.252;2023-04-25T04:41:06;100726.16;;;3.85;100.00
58243;BME280;50118;53.232;8.252;2023-04-25T04:43:31;100730.09;;;3.78;100.00
58243;BME280;50118;53.232;8.252;2023-04-25T04:46:00;100730.66;;;3.83;100.00
58243;BME280;50118;53.232;8.252;2023-04-25T04:48:25;100730.25;;;3.89;100.00
58243;BME280;50118;53.232;8.252;2023-04-25T04:50:52;100731.28;;;3.86;100.00
58243;BME280;50118;53.232;8.252;2023-04-25T04:53:17;100729.91;;;3.81;100.00
58243;BME280;50118;53.232;8.252;2023-04-25T04:55:42;100728.94;;;3.69;100.00
58243;BME280;50118;53.232;8.252;2023-04-25T04:58:08;100738.63;;;3.68;100.00
58243;BME280;50118;53.232;8.252;2023-04-25T05:00:34;100737.00;;;3.53;100.00
58243;BME280;50118;53.232;8.252;2023-04-25T05:02:59;100724.66;;;3.53;100.00
58243;BME280;50118;53.232;8.252;2023-04-25T05:05:25;100731.44;;;3.58;100.00
58243;BME280;50118;53.232;8.252;2023-04-25T05:07:51;100739.09;;;3.48;100.00
58243;BME280;50118;53.232;8.252;2023-04-25T05:10:18;100744.16;;;3.51;100.00
58243;BME280;50118;53.232;8.252;2023-04-25T05:12:44;100744.72;;;3.56;100.00
58243;BME280;50118;53.232;8.252;2023-04-25T05:15:09;100741.66;;;4.02;100.00
58243;BME280;50118;53.232;8.252;2023-04-25T05:17:35;100745.56;;;4.86;100.00
58243;BME280;50118;53.232;8.252;2023-04-25T05:20:00;100743.03;;;5.94;100.00
58243;BME280;50118;53.232;8.252;2023-04-25T05:22:26;100745.59;;;6.99;100.00
58243;BME280;50118;53.232;8.252;2023-04-25T05:24:52;100753.72;;;7.41;91.31
58243;BME280;50118;53.232;8.252;2023-04-25T05:27:18;100748.81;;;8.22;87.95
58243;BME280;50118;53.232;8.252;2023-04-25T05:29:44;100750.69;;;8.11;88.99
58243;BME280;50118;53.232;8.252;2023-04-25T05:32:11;100754.91;;;8.86;84.71
58243;BME280;50118;53.232;8.252;2023-04-25T05:34:37;100763.84;;;9.35;80.55
58243;BME280;50118;53.232;8.252;2023-04-25T05:37:02;100767.72;;;9.12;79.23
58243;BME280;50118;53.232;8.252;2023-04-25T05:39:28;100775.38;;;8.74;80.82
58243;BME280;50118;53.232;8.252;2023-04-25T05:41:53;100773.31;;;8.78;84.31
58243;BME280;50118;53.232;8.252;2023-04-25T05:44:19;100775.31;;;7.69;88.21
58243;BME280;50118;53.232;8.252;2023-04-25T05:46:44;100779.66;;;7.70;90.27
58243;BME280;50118;53.232;8.252;2023-04-25T05:49:09;100784.59;;;6.97;93.55
58243;BME280;50118;53.232;8.252;2023-04-25T05:51:35;100784.22;;;7.24;92.41
58243;BME280;50118;53.232;8.252;2023-04-25T05:54:00;100785.53;;;7.41;91.83
58243;BME280;50118;53.232;8.252;2023-04-25T05:56:26;100779.47;;;8.15;87.95
58243;BME280;50118;53.232;8.252;2023-04-25T05:58:51;100781.03;;;8.39;85.72
58243;BME280;50118;53.232;8.252;2023-04-25T06:01:17;100781.78;;;9.33;76.42
58243;BME280;50118;53.232;8.252;2023-04-25T06:03:42;100773.16;;;9.70;73.64
58243;BME280;50118;53.232;8.252;2023-04-25T06:06:09;100788.91;;;11.07;69.93
58243;BME280;50118;53.232;8.252;2023-04-25T06:08:35;100795.13;;;10.98;63.22
58243;BME280;50118;53.232;8.252;2023-04-25T06:11:00;100790.94;;;10.28;69.24
58243;BME280;50118;53.232;8.252;2023-04-25T06:13:26;100800.53;;;10.78;70.37
58243;BME280;50118;53.232;8.252;2023-04-25T06:15:52;100791.66;;;10.01;70.90
58243;BME280;50118;53.232;8.252;2023-04-25T06:18:17;100803.66;;;8.85;75.46
58243;BME280;50118;53.232;8.252;2023-04-25T06:20:42;100800.81;;;8.14;77.98
58243;BME280;50118;53.232;8.252;2023-04-25T06:23:08;100809.84;;;7.46;82.46
58243;BME280;50118;53.232;8.252;2023-04-25T06:25:33;100811.66;;;7.46;83.37
58243;BME280;50118;53.232;8.252;2023-04-25T06:27:59;100818.41;;;6.71;82.30
58243;BME280;50118;53.232;8.252;2023-04-25T06:30:24;100813.13;;;6.71;85.10
58243;BME280;50118;53.232;8.252;2023-04-25T06:32:53;100814.59;;;6.40;86.64
58243;BME280;50118;53.232;8.252;2023-04-25T06:35:20;100814.72;;;6.27;89.39
58243;BME280;50118;53.232;8.252;2023-04-25T06:37:46;100824.97;;;6.43;88.84
58243;BME280;50118;53.232;8.252;2023-04-25T06:40:11;100813.94;;;6.49;90.09
58243;BME280;50118;53.232;8.252;2023-04-25T06:42:36;100814.94;;;6.82;87.22
58243;BME280;50118;53.232;8.252;2023-04-25T06:45:02;100817.81;;;7.90;82.35
58243;BME280;50118;53.232;8.252;2023-04-25T06:47:28;100814.47;;;8.63;77.62
58243;BME280;50118;53.232;8.252;2023-04-25T06:49:55;100819.84;;;9.44;74.27
58243;BME280;50118;53.232;8.252;2023-04-25T06:52:20;100820.78;;;10.42;67.92
58243;BME280;50118;53.232;8.252;2023-04-25T06:54:45;100810.09;;;11.82;61.11
58243;BME280;50118;53.232;8.252;2023-04-25T06:57:11;100819.97;;;11.54;61.86
58243;BME280;50118;53.232;8.252;2023-04-25T06:59:37;100809.31;;;11.90;62.41
58243;BME280;50118;53.232;8.252;2023-04-25T07:02:02;100815.00;;;12.93;53.46
58243;BME280;50118;53.232;8.252;2023-04-25T07:04:28;100817.00;;;13.76;55.31
58243;BME280;50118;53.232;8.252;2023-04-25T07:06:54;100820.56;;;12.29;55.52
58243;BME280;50118;53.232;8.252;2023-04-25T07:09:20;100826.22;;;12.08;54.70
58243;BME280;50118;53.232;8.252;2023-04-25T07:11:45;100823.63;;;12.35;56.59
58243;BME280;50118;53.232;8.252;2023-04-25T07:14:11;100829.88;;;12.69;57.15
58243;BME280;50118;53.232;8.252;2023-04-25T07:16:36;100824.16;;;12.20;57.19
58243;BME280;50118;53.232;8.252;2023-04-25T07:19:02;100832.09;;;12.12;58.03
58243;BME280;50118;53.232;8.252;2023-04-25T07:21:28;100827.44;;;11.96;55.93
58243;BME280;50118;53.232;8.252;2023-04-25T07:23:53;100831.56;;;10.50;64.56
58243;BME280;50118;53.232;8.252;2023-04-25T07:26:18;100825.19;;;10.80;61.25
58243;BME280;50118;53.232;8.252;2023-04-25T07:28:44;100836.59;;;9.34;63.75
58243;BME280;50118;53.232;8.252;2023-04-25T07:31:09;100826.13;;;10.03;62.81
58243;BME280;50118;53.232;8.252;2023-04-25T07:33:35;100851.16;;;9.30;64.13
58243;BME280;50118;53.232;8.252;2023-04-25T07:36:00;100841.81;;;8.21;67.49
58243;BME280;50118;53.232;8.252;2023-04-25T07:38:26;100857.31;;;7.27;69.80
58243;BME280;50118;53.232;8.252;2023-04-25T07:40:51;100864.81;;;6.64;74.93
58243;BME280;50118;53.232;8.252;2023-04-25T07:43:17;100867.63;;;6.38;81.11
58243;BME280;50118;53.232;8.252;2023-04-25T07:45:46;100896.38;;;5.57;92.39
58243;BME280;50118;53.232;8.252;2023-04-25T07:48:16;100890.94;;;4.71;100.00
58243;BME280;50118;53.232;8.252;2023-04-25T07:50:42;100890.25;;;4.41;100.00
58243;BME280;50118;53.232;8.252;2023-04-25T07:53:07;100888.06;;;4.48;100.00
58243;BME280;50118;53.232;8.252;2023-04-25T07:55:32;100887.66;;;4.67;100.00
58243;BME280;50118;53.232;8.252;2023-04-25T07:57:58;100887.88;;;4.90;100.00
58243;BME280;50118;53.232;8.252;2023-04-25T08:00:23;100882.94;;;4.98;100.00
58243;BME280;50118;53.232;8.252;2023-04-25T08:02:49;100897.44;;;5.55;100.00
58243;BME280;50118;53.232;8.252;2023-04-25T08:05:16;100886.59;;;5.96;100.00
58243;BME280;50118;53.232;8.252;2023-04-25T08:07:41;100909.59;;;6.31;100.00
58243;BME280;50118;53.232;8.252;2023-04-25T08:10:07;100901.84;;;6.99;98.21
58243;BME280;50118;53.232;8.252;2023-04-25T08:12:33;100908.16;;;7.32;90.01
58243;BME280;50118;53.232;8.252;2023-04-25T08:15:00;100917.31;;;7.73;91.67
58243;BME280;50118;53.232;8.252;2023-04-25T08:17:26;100922.00;;;7.47;89.28
58243;BME280;50118;53.232;8.252;2023-04-25T08:19:51;100912.00;;;8.60;89.40
58243;BME280;50118;53.232;8.252;2023-04-25T08:22:17;100912.66;;;8.74;83.80
58243;BME280;50118;53.232;8.252;2023-04-25T08:24:42;100913.22;;;9.60;81.22
58243;BME280;50118;53.232;8.252;2023-04-25T08:27:09;100898.00;;;9.62;77.85
58243;BME280;50118;53.232;8.252;2023-04-25T08:29:35;100917.50;;;8.90;80.91
58243;BME280;50118;53.232;8.252;2023-04-25T08:32:00;100922.91;;;9.00;80.46
58243;BME280;50118;53.232;8.252;2023-04-25T08:34:26;100922.25;;;8.21;81.33
58243;BME280;50118;53.232;8.252;2023-04-25T08:36:51;100918.59;;;8.66;85.82
58243;BME280;50118;53.232;8.252;2023-04-25T08:39:17;100928.59;;;7.86;88.51
58243;BME280;50118;53.232;8.252;2023-04-25T08:41:42;100940.88;;;7.20;82.79
58243;BME280;50118;53.232;8.252;2023-04-25T08:44:10;100951.16;;;6.78;82.85
58243;BME280;50118;53.232;8.252;2023-04-25T08:46:38;100954.75;;;6.77;88.51
58243;BME280;50118;53.232;8.252;2023-04-25T08:49:06;100953.16;;;6.98;82.94
58243;BME280;50118;53.232;8.252;2023-04-25T08:51:32;100960.44;;;7.64;86.73
58243;BME280;50118;53.232;8.252;2023-04-25T08:54:09;100967.69;;;7.62;82.23
58243;BME280;50118;53.232;8.252;2023-04-25T08:56:37;100966.06;;;7.93;76.43
58243;BME280;50118;53.232;8.252;2023-04-25T08:59:03;100953.72;;;8.70;76.14
58243;BME280;50118;53.232;8.252;2023-04-25T09:01:29;100962.16;;;9.17;73.95
58243;BME280;50118;53.232;8.252;2023-04-25T09:03:58;100965.50;;;9.19;74.80
58243;BME280;50118;53.232;8.252;2023-04-25T09:06:23;100971.47;;;9.32;73.53
58243;BME280;50118;53.232;8.252;2023-04-25T09:08:50;100970.78;;;9.61;73.10
58243;BME280;50118;53.232;8.252;2023-04-25T09:11:15;100952.28;;;10.51;68.93
58243;BME280;50118;53.232;8.252;2023-04-25T09:13:41;100968.38;;;10.59;66.64
58243;BME280;50118;53.232;8.252;2023-04-25T09:16:06;100968.53;;;9.97;69.65
58243;BME280;50118;53.232;8.252;2023-04-25T09:18:34;100978.22;;;9.15;70.29
58243;BME280;50118;53.232;8.252;2023-04-25T09:21:10;100982.06;;;8.81;77.08
58243;BME280;50118;53.232;8.252;2023-04-25T09:23:47;100980.13;;;8.71;78.75
58243;BME280;50118;53.232;8.252;2023-04-25T09:26:18;100991.91;;;8.57;76.53
58243;BME280;50118;53.232;8.252;2023-04-25T09:28:44;100996.09;;;7.71;81.30
58243;BME280;50118;53.232;8.252;2023-04-25T09:31:11;101005.03;;;7.81;77.67
58243;BME280;50118;53.232;8.252;2023-04-25T09:33:37;101014.94;;;7.91;74.41
58243;BME280;50118;53.232;8.252;2023-04-25T09:36:05;101020.59;;;7.75;74.76
58243;BME280;50118;53.232;8.252;2023-04-25T09:38:31;101029.84;;;7.69;79.47
58243;BME280;50118;53.232;8.252;2023-04-25T09:40:58;101024.56;;;7.58;83.84
58243;BME280;50118;53.232;8.252;2023-04-25T09:43:24;101024.38;;;7.37;83.35
58243;BME280;50118;53.232;8.252;2023-04-25T09:45:51;101036.75;;;6.89;90.19
58243;BME280;50118;53.232;8.252;2023-04-25T09:48:19;101029.13;;;6.73;93.73
58243;BME280;50118;53.232;8.252;2023-04-25T09:53:30;101032.81;;;7.31;91.00
58243;BME280;50118;53.232;8.252;2023-04-25T09:55:59;101031.13;;;7.29;93.68
58243;BME280;50118;53.232;8.252;2023-04-25T09:58:25;101029.47;;;6.93;89.56
58243;BME280;50118;53.232;8.252;2023-04-25T10:00:56;101031.91;;;7.65;86.89
58243;BME280;50118;53.232;8.252;2023-04-25T10:03:25;101031.81;;;7.78;84.77
58243;BME280;50118;53.232;8.252;2023-04-25T10:05:52;101039.00;;;8.44;82.31
58243;BME280;50118;53.232;8.252;2023-04-25T10:08:19;101034.84;;;8.74;78.65
58243;BME280;50118;53.232;8.252;2023-04-25T10:10:46;101037.72;;;8.82;76.01
58243;BME280;50118;53.232;8.252;2023-04-25T10:13:12;101024.78;;;9.52;71.80
58243;BME280;50118;53.232;8.252;2023-04-25T10:15:40;101035.84;;;9.36;72.25
58243;BME280;50118;53.232;8.252;2023-04-25T10:18:06;101025.75;;;9.82;71.90
58243;BME280;50118;53.232;8.252;2023-04-25T10:20:33;101034.16;;;10.18;69.67
58243;BME280;50118;53.232;8.252;2023-04-25T10:23:13;101036.84;;;9.87;66.19
58243;BME280;50118;53.232;8.252;2023-04-25T10:25:40;101029.09;;;10.45;70.42
58243;BME280;50118;53.232;8.252;2023-04-25T10:28:06;101038.81;;;10.25;66.98
58243;BME280;50118;53.232;8.252;2023-04-25T10:30:32;101023.47;;;9.77;66.62
58243;BME280;50118;53.232;8.252;2023-04-25T10:32:58;101031.97;;;10.33;66.14
58243;BME280;50118;53.232;8.252;2023-04-25T10:35:28;101041.19;;;10.28;64.88
58243;BME280;50118;53.232;8.252;2023-04-25T10:40:31;101034.41;;;10.15;68.10
58243;BME280;50118;53.232;8.252;2023-04-25T10:46:32;101083.28;;;7.29;85.64
58243;BME280;50118;53.232;8.252;2023-04-25T10:49:01;101090.63;;;6.53;92.10
58243;BME280;50118;53.232;8.252;2023-04-25T10:51:36;101075.22;;;6.21;99.25
58243;BME280;50118;53.232;8.252;2023-04-25T10:54:07;101080.53;;;5.95;100.00
58243;BME280;50118;53.232;8.252;2023-04-25T10:56:42;101069.88;;;6.10;100.00
58243;BME280;50118;53.232;8.252;2023-04-25T11:01:43;101070.31;;;6.78;99.27
58243;BME280;50118;53.232;8.252;2023-04-25T11:04:30;101063.25;;;6.65;98.52
58243;BME280;50118;53.232;8.252;2023-04-25T11:07:13;101062.75;;;7.08;92.78
58243;BME280;50118;53.232;8.252;2023-04-25T11:09:44;101054.41;;;7.37;93.29
58243;BME280;50118;53.232;8.252;2023-04-25T11:12:10;101056.63;;;7.77;89.21
58243;BME280;50118;53.232;8.252;2023-04-25T11:14:39;101063.84;;;8.32;81.20
58243;BME280;50118;53.232;8.252;2023-04-25T11:17:04;101064.72;;;8.87;84.29
58243;BME280;50118;53.232;8.252;2023-04-25T11:19:31;101061.69;;;9.45;72.33
58243;BME280;50118;53.232;8.252;2023-04-25T11:22:01;101058.47;;;9.72;74.54
58243;BME280;50118;53.232;8.252;2023-04-25T11:24:30;101077.09;;;9.30;74.32
58243;BME280;50118;53.232;8.252;2023-04-25T11:26:58;101096.66;;;8.08;83.62
58243;BME280;50118;53.232;8.252;2023-04-25T11:29:26;101089.75;;;7.14;89.73
58243;BME280;50118;53.232;8.252;2023-04-25T11:31:52;101099.63;;;7.23;90.82
58243;BME280;50118;53.232;8.252;2023-04-25T11:34:18;101095.09;;;7.01;91.00
58243;BME280;50118;53.232;8.252;2023-04-25T11:36:45;101088.94;;;7.00;93.13
58243;BME280;50118;53.232;8.252;2023-04-25T11:39:10;101101.41;;;7.46;97.98
58243;BME280;50118;53.232;8.252;2023-04-25T11:41:37;101089.41;;;7.76;92.84
58243;BME280;50118;53.232;8.252;2023-04-25T11:44:03;101087.84;;;8.53;84.21
58243;BME280;50118;53.232;8.252;2023-04-25T11:46:29;101094.44;;;9.46;81.82
58243;BME280;50118;53.232;8.252;2023-04-25T11:48:55;101095.63;;;10.15;74.66
58243;BME280;50118;53.232;8.252;2023-04-25T11:51:21;101089.81;;;9.69;69.19
58243;BME280;50118;53.232;8.252;2023-04-25T11:53:46;101094.66;;;9.85;73.45
58243;BME280;50118;53.232;8.252;2023-04-25T11:56:12;101096.72;;;10.33;70.69
58243;BME280;50118;53.232;8.252;2023-04-25T11:58:57;101094.41;;;9.88;71.01
58243;BME280;50118;53.232;8.252;2023-04-25T12:01:34;101097.50;;;9.93;69.78
58243;BME280;50118;53.232;8.252;2023-04-25T12:06:42;101097.94;;;9.67;69.95
58243;BME280;50118;53.232;8.252;2023-04-25T12:09:11;101097.47;;;9.09;68.75
58243;BME280;50118;53.232;8.252;2023-04-25T12:11:42;101092.94;;;9.32;68.62
58243;BME280;50118;53.232;8.252;2023-04-25T12:14:09;101104.78;;;8.95;73.87
58243;BME280;50118;53.232;8.252;2023-04-25T12:16:46;101103.66;;;8.77;71.96
58243;BME280;50118;53.232;8.252;2023-04-25T12:19:15;101100.28;;;8.52;68.59
58243;BME280;50118;53.232;8.252;2023-04-25T12:21:42;101107.13;;;8.77;66.84
58243;BME280;50118;53.232;8.252;2023-04-25T12:24:16;101106.63;;;9.69;64.16
58243;BME280;50118;53.232;8.252;2023-04-25T12:29:24;101108.78;;;10.06;66.50
58243;BME280;50118;53.232;8.252;2023-04-25T12:31:53;101112.50;;;9.31;64.01
58243;BME280;50118;53.232;8.252;2023-04-25T12:34:20;101123.47;;;9.05;60.68
58243;BME280;50118;53.232;8.252;2023-04-25T12:36:46;101123.25;;;8.53;61.62
58243;BME280;50118;53.232;8.252;2023-04-25T12:39:22;101135.28;;;8.57;59.65
58243;BME280;50118;53.232;8.252;2023-04-25T12:41:49;101127.38;;;9.33;57.50
58243;BME280;50118;53.232;8.252;2023-04-25T12:44:14;101146.25;;;9.51;59.75
58243;BME280;50118;53.232;8.252;2023-04-25T12:46:40;101134.69;;;9.09;59.41
58243;BME280;50118;53.232;8.252;2023-04-25T12:49:07;101130.25;;;9.09;60.27
58243;BME280;50118;53.232;8.252;2023-04-25T12:51:34;101121.88;;;9.14;59.69
58243;BME280;50118;53.232;8.252;2023-04-25T12:54:00;101127.44;;;10.06;55.41
58243;BME280;50118;53.232;8.252;2023-04-25T12:56:27;101135.25;;;10.79;51.14
58243;BME280;50118;53.232;8.252;2023-04-25T12:58:53;101145.81;;;10.91;47.36
58243;BME280;50118;53.232;8.252;2023-04-25T13:01:19;101132.03;;;10.76;47.32
58243;BME280;50118;53.232;8.252;2023-04-25T13:03:45;101136.16;;;11.09;48.23
58243;BME280;50118;53.232;8.252;2023-04-25T13:06:11;101133.88;;;10.75;52.47
58243;BME280;50118;53.232;8.252;2023-04-25T13:08:38;101128.84;;;10.41;51.57